Time;durP1;ratioP1;P1;durP2;ratioP2;P2;SDS_P1;SDS_P2;PMS_P1;PMS_P2;Temp;Humidity;BMP_temperature;BMP_pressure;BME280_temperature;BME280_humidity;BME280_pressure;Samples;Min_cycle;Max_cycle;Signal;HPM_P1;HPM_P2
2023/05/14 00:00:16;;;;;;;11.57;9.20;;;12.10;99.90;;;;;;5050563;28;20481;-67
2023/05/14 00:02:44;;;;;;;10.57;8.90;;;12.00;99.90;;;;;;5050460;28;20448;-67
2023/05/14 00:05:16;;;;;;;12.80;8.23;;;12.10;99.90;;;;;;5051047;28;20519;-68
2023/05/14 00:07:45;;;;;;;10.43;8.80;;;12.10;99.90;;;;;;5053876;28;20579;-68
2023/05/14 00:10:12;;;;;;;11.07;8.60;;;12.10;99.90;;;;;;5054047;28;20433;-67
2023/05/14 00:12:40;;;;;;;10.20;7.87;;;12.10;99.90;;;;;;5053029;28;20479;-68
2023/05/14 00:15:09;;;;;;;9.90;8.10;;;12.20;99.90;;;;;;5039839;28;20433;-68
2023/05/14 00:17:38;;;;;;;8.10;7.13;;;12.20;99.90;;;;;;5054267;28;20472;-68
2023/05/14 00:20:07;;;;;;;8.70;7.40;;;12.20;99.90;;;;;;5053037;28;20492;-68
2023/05/14 00:22:38;;;;;;;7.90;7.03;;;12.20;99.90;;;;;;5053348;28;20437;-67
2023/05/14 00:25:07;;;;;;;8.60;7.67;;;12.20;99.90;;;;;;5053206;28;20939;-68
2023/05/14 00:27:36;;;;;;;8.13;7.33;;;12.20;99.90;;;;;;5054096;28;20437;-68
2023/05/14 00:30:07;;;;;;;7.37;6.43;;;12.20;99.90;;;;;;5053049;28;20498;-68
2023/05/14 00:32:34;;;;;;;7.90;6.90;;;12.30;99.90;;;;;;5053202;28;20471;-68
2023/05/14 00:35:03;;;;;;;7.80;6.90;;;12.20;99.90;;;;;;5053587;28;20445;-67
2023/05/14 00:37:31;;;;;;;8.90;7.30;;;12.20;99.90;;;;;;5053696;28;20499;-68
2023/05/14 00:40:02;;;;;;;9.63;7.17;;;12.20;99.90;;;;;;5053022;28;20507;-67
2023/05/14 00:42:30;;;;;;;8.00;7.20;;;12.20;99.90;;;;;;5033834;28;20436;-67
2023/05/14 00:44:58;;;;;;;8.40;6.70;;;12.20;99.90;;;;;;5050630;28;20468;-68
2023/05/14 00:47:38;;;;;;;9.30;8.40;;;12.20;99.90;;;;;;5053487;28;20503;-68
2023/05/14 00:50:06;;;;;;;8.93;6.50;;;12.20;99.90;;;;;;5053086;28;20464;-68
2023/05/14 00:52:33;;;;;;;9.03;7.00;;;12.20;99.90;;;;;;5054797;28;20194;-68
2023/05/14 00:55:04;;;;;;;8.37;7.00;;;12.20;99.90;;;;;;5054038;28;20441;-68
2023/05/14 00:57:42;;;;;;;8.63;7.10;;;12.20;99.90;;;;;;5054330;28;20456;-67
2023/05/14 01:00:10;;;;;;;8.40;6.97;;;12.20;99.90;;;;;;5054316;28;20445;-68
2023/05/14 01:02:38;;;;;;;7.83;7.03;;;12.20;99.90;;;;;;5054325;28;20441;-68
2023/05/14 01:05:06;;;;;;;7.07;6.30;;;12.20;99.90;;;;;;5054111;28;20437;-68
2023/05/14 01:07:42;;;;;;;9.80;7.20;;;12.20;99.90;;;;;;5034538;28;20430;-67
2023/05/14 01:10:15;;;;;;;9.50;6.70;;;12.20;99.90;;;;;;5048607;28;20428;-67
2023/05/14 01:13:00;;;;;;;10.00;7.70;;;12.30;99.90;;;;;;5054264;28;20495;-68
2023/05/14 01:15:44;;;;;;;7.30;6.50;;;12.30;99.90;;;;;;5053321;28;20437;-68
2023/05/14 01:18:16;;;;;;;8.40;7.43;;;12.30;99.90;;;;;;5055636;28;20495;-67
2023/05/14 01:20:44;;;;;;;10.33;7.30;;;12.30;99.90;;;;;;5073402;28;20471;-68
2023/05/14 01:23:17;;;;;;;8.13;7.33;;;12.30;99.90;;;;;;5073765;28;20531;-68
2023/05/14 01:25:44;;;;;;;11.20;8.20;;;12.30;99.90;;;;;;5073424;28;20440;-68
2023/05/14 01:28:18;;;;;;;7.73;6.60;;;12.30;99.90;;;;;;5073958;28;20444;-68
2023/05/14 01:30:50;;;;;;;7.33;6.63;;;12.30;99.90;;;;;;5073064;28;20443;-68
2023/05/14 01:33:19;;;;;;;7.27;6.57;;;12.30;99.90;;;;;;5074029;28;20456;-68
2023/05/14 01:35:47;;;;;;;8.40;7.27;;;12.30;99.90;;;;;;5072989;28;20440;-67
2023/05/14 01:38:19;;;;;;;8.40;6.43;;;12.30;99.90;;;;;;5073552;28;20517;-67
2023/05/14 01:40:47;;;;;;;6.00;5.40;;;12.30;99.90;;;;;;5073221;28;20459;-68
2023/05/14 01:43:24;;;;;;;7.50;6.13;;;12.30;99.90;;;;;;5072798;28;20489;-68
2023/05/14 01:45:51;;;;;;;7.17;6.47;;;12.30;99.90;;;;;;5073148;28;20523;-67
2023/05/14 01:48:19;;;;;;;9.83;6.33;;;12.30;99.90;;;;;;5072806;28;20440;-67
2023/05/14 01:50:50;;;;;;;7.77;6.80;;;12.40;99.90;;;;;;5073175;28;20505;-67
2023/05/14 01:53:24;;;;;;;9.57;6.70;;;12.40;99.90;;;;;;5073041;28;20775;-68
2023/05/14 01:55:54;;;;;;;7.20;5.83;;;12.40;99.90;;;;;;5073892;28;20753;-67
2023/05/14 01:58:23;;;;;;;8.53;7.13;;;12.40;99.90;;;;;;5072589;28;20476;-67
2023/05/14 02:01:00;;;;;;;6.73;6.03;;;12.40;99.90;;;;;;5072620;28;20432;-68
2023/05/14 02:03:28;;;;;;;7.13;6.20;;;12.40;99.90;;;;;;5072705;28;20475;-68
2023/05/14 02:05:57;;;;;;;7.43;6.73;;;12.30;99.90;;;;;;5070655;28;20436;-68
2023/05/14 02:08:26;;;;;;;8.20;6.63;;;12.30;99.90;;;;;;5072534;28;20926;-68
2023/05/14 02:11:00;;;;;;;6.80;5.67;;;12.30;99.90;;;;;;5073251;28;20914;-68
2023/05/14 02:13:32;;;;;;;6.90;5.97;;;12.30;99.90;;;;;;5072517;28;20443;-68
2023/05/14 02:15:59;;;;;;;8.20;7.40;;;12.30;99.90;;;;;;5073232;28;20835;-68
2023/05/14 02:18:41;;;;;;;9.73;8.83;;;12.40;99.90;;;;;;5072049;28;20579;-67
2023/05/14 02:21:13;;;;;;;9.17;8.27;;;12.40;99.90;;;;;;5072670;28;20468;-67
2023/05/14 02:23:43;;;;;;;7.67;6.87;;;12.40;99.90;;;;;;5072029;28;20505;-68
2023/05/14 02:26:12;;;;;;;6.70;6.00;;;12.40;99.90;;;;;;5072728;28;20476;-67
2023/05/14 02:28:44;;;;;;;8.40;7.03;;;12.40;99.90;;;;;;5072481;28;20441;-67
2023/05/14 02:31:18;;;;;;;8.97;7.13;;;12.40;99.90;;;;;;5072412;28;20462;-67
2023/05/14 02:33:45;;;;;;;7.43;6.13;;;12.40;99.90;;;;;;5071159;28;20806;-68
2023/05/14 02:36:13;;;;;;;7.73;7.03;;;12.40;99.90;;;;;;5072794;28;20435;-67
2023/05/14 02:38:42;;;;;;;8.93;8.10;;;12.40;99.90;;;;;;5071788;28;20551;-68
2023/05/14 02:41:11;;;;;;;8.50;7.60;;;12.40;99.90;;;;;;5072321;28;20439;-67
2023/05/14 02:43:40;;;;;;;8.10;7.27;;;12.40;99.90;;;;;;5072503;28;20511;-67
2023/05/14 02:46:07;;;;;;;8.27;7.20;;;12.40;99.90;;;;;;5072461;28;20448;-67
2023/05/14 02:48:34;;;;;;;7.70;6.90;;;12.40;99.90;;;;;;5072200;28;20436;-67
2023/05/14 02:51:06;;;;;;;7.83;7.13;;;12.40;99.90;;;;;;5071892;28;20440;-67
2023/05/14 02:53:36;;;;;;;8.33;7.53;;;12.40;99.90;;;;;;5072075;28;20446;-68
2023/05/14 02:56:06;;;;;;;8.93;7.27;;;12.40;99.90;;;;;;5072439;28;20475;-67
2023/05/14 02:58:36;;;;;;;7.80;7.00;;;12.40;99.90;;;;;;5071011;28;20984;-67
2023/05/14 03:01:03;;;;;;;9.30;7.50;;;12.40;99.90;;;;;;5072222;28;20493;-67
2023/05/14 03:03:31;;;;;;;7.00;6.30;;;12.40;99.90;;;;;;5072020;28;20443;-67
2023/05/14 03:06:00;;;;;;;9.13;7.93;;;12.40;99.90;;;;;;5072251;28;20788;-67
2023/05/14 03:08:27;;;;;;;7.37;6.60;;;12.40;99.90;;;;;;5072474;28;20444;-67
2023/05/14 03:10:57;;;;;;;13.20;8.10;;;12.40;99.90;;;;;;5072038;28;20432;-68
2023/05/14 03:13:26;;;;;;;8.17;7.23;;;12.40;99.90;;;;;;5072074;28;20435;-67
2023/05/14 03:15:54;;;;;;;7.57;6.77;;;12.30;99.90;;;;;;5072268;28;20779;-67
2023/05/14 03:18:22;;;;;;;8.00;7.10;;;12.40;99.90;;;;;;5071390;28;20529;-67
2023/05/14 03:20:52;;;;;;;7.87;6.93;;;12.40;99.90;;;;;;5071924;28;20444;-68
2023/05/14 03:23:22;;;;;;;8.30;7.20;;;12.40;99.90;;;;;;5071842;28;20825;-68
2023/05/14 03:25:51;;;;;;;8.43;7.30;;;12.40;99.90;;;;;;5072449;28;20518;-67
2023/05/14 03:28:20;;;;;;;8.33;7.53;;;12.40;99.90;;;;;;5071827;28;20509;-67
2023/05/14 03:30:50;;;;;;;8.63;7.73;;;12.40;99.90;;;;;;5072168;28;20444;-67
2023/05/14 03:33:20;;;;;;;8.47;6.63;;;12.30;99.90;;;;;;5070939;28;20501;-67
2023/05/14 03:35:47;;;;;;;8.70;7.13;;;12.40;99.90;;;;;;5072182;28;20440;-67
2023/05/14 03:38:14;;;;;;;8.30;7.00;;;12.40;99.90;;;;;;5071714;28;20443;-67
2023/05/14 03:40:42;;;;;;;7.07;6.37;;;12.40;99.90;;;;;;5073673;28;21194;-67
2023/05/14 03:43:09;;;;;;;8.10;7.10;;;12.40;99.90;;;;;;5075232;28;20440;-67
2023/05/14 03:45:36;;;;;;;8.30;7.53;;;12.40;99.90;;;;;;5075924;28;20945;-67
2023/05/14 03:48:08;;;;;;;7.53;6.30;;;12.40;99.90;;;;;;5075692;28;20934;-67
2023/05/14 03:50:36;;;;;;;8.10;6.33;;;12.40;99.90;;;;;;5075657;28;20914;-68
2023/05/14 03:53:03;;;;;;;7.47;6.70;;;12.40;99.90;;;;;;5075094;28;20440;-67
2023/05/14 03:55:30;;;;;;;7.90;7.00;;;12.40;99.90;;;;;;5075518;28;20433;-67
2023/05/14 03:57:58;;;;;;;8.97;8.00;;;12.40;99.90;;;;;;5075261;28;20818;-67
2023/05/14 04:00:26;;;;;;;8.20;6.73;;;12.40;99.90;;;;;;5075425;28;20490;-68
2023/05/14 04:02:54;;;;;;;8.40;6.60;;;12.50;99.90;;;;;;5075482;28;20435;-67
2023/05/14 04:05:26;;;;;;;9.20;7.93;;;12.50;99.90;;;;;;5075567;28;20439;-67
2023/05/14 04:07:54;;;;;;;11.00;7.83;;;12.50;99.90;;;;;;5074904;28;20449;-68
2023/05/14 04:10:22;;;;;;;9.67;7.53;;;12.50;99.90;;;;;;5075192;28;20451;-68
2023/05/14 04:12:51;;;;;;;9.03;8.13;;;12.40;99.90;;;;;;5074992;28;20443;-67
2023/05/14 04:15:19;;;;;;;8.27;6.70;;;12.50;99.90;;;;;;5075317;28;20464;-67
2023/05/14 04:17:46;;;;;;;10.70;8.37;;;12.50;99.90;;;;;;5074998;28;20497;-67
2023/05/14 04:20:14;;;;;;;9.23;7.80;;;12.50;99.90;;;;;;5073707;28;20485;-67
2023/05/14 04:22:47;;;;;;;10.07;8.30;;;12.50;99.90;;;;;;5075196;28;20805;-67
2023/05/14 04:25:17;;;;;;;9.77;7.97;;;12.50;99.90;;;;;;5075225;28;20443;-67
2023/05/14 04:27:45;;;;;;;8.73;7.13;;;12.50;99.90;;;;;;5074292;28;20531;-67
2023/05/14 04:30:16;;;;;;;8.10;7.00;;;12.60;99.90;;;;;;5074642;28;20923;-67
2023/05/14 04:32:46;;;;;;;9.33;7.43;;;12.60;99.90;;;;;;5075090;28;20536;-67
2023/05/14 04:35:16;;;;;;;8.03;7.10;;;12.60;99.90;;;;;;5074825;28;20441;-67
2023/05/14 04:37:44;;;;;;;7.10;6.00;;;12.60;99.90;;;;;;5075003;28;20446;-67
2023/05/14 04:40:18;;;;;;;11.83;6.07;;;12.60;99.90;;;;;;5074715;28;20479;-67
2023/05/14 04:42:50;;;;;;;8.10;7.13;;;12.60;99.90;;;;;;5073642;28;20443;-67
2023/05/14 04:45:21;;;;;;;7.00;5.70;;;12.70;99.90;;;;;;5074140;28;20424;-67
2023/05/14 04:47:48;;;;;;;7.30;6.17;;;12.70;99.90;;;;;;5074618;28;20938;-68
2023/05/14 04:50:15;;;;;;;9.63;6.07;;;12.70;99.90;;;;;;5074212;28;20440;-67
2023/05/14 04:52:48;;;;;;;8.73;5.30;;;12.70;99.90;;;;;;5074496;28;20481;-68
2023/05/14 04:55:16;;;;;;;8.70;7.50;;;12.70;99.90;;;;;;5074342;28;20486;-68
2023/05/14 04:57:43;;;;;;;7.43;5.87;;;12.80;99.90;;;;;;5074229;28;20444;-67
2023/05/14 05:00:12;;;;;;;8.73;6.87;;;12.80;99.90;;;;;;5071571;28;20549;-67
2023/05/14 05:02:44;;;;;;;10.00;6.23;;;12.80;99.90;;;;;;5074134;28;20855;-67
2023/05/14 05:05:14;;;;;;;8.97;7.00;;;12.80;99.90;;;;;;5080368;28;20476;-68
2023/05/14 05:07:42;;;;;;;12.53;6.50;;;12.90;99.90;;;;;;5073434;28;21286;-67
2023/05/14 05:10:10;;;;;;;10.90;7.23;;;12.90;99.90;;;;;;5073623;28;20440;-67
2023/05/14 05:12:39;;;;;;;10.43;7.10;;;12.90;99.90;;;;;;5073629;28;20527;-68
2023/05/14 05:15:08;;;;;;;8.50;6.90;;;12.90;99.90;;;;;;5074822;28;20508;-67
2023/05/14 05:17:37;;;;;;;10.83;7.63;;;12.90;99.90;;;;;;5084037;28;20471;-67
2023/05/14 05:20:10;;;;;;;10.00;7.27;;;12.90;99.90;;;;;;5072983;28;20524;-68
2023/05/14 05:22:38;;;;;;;7.70;6.60;;;12.90;99.90;;;;;;5084602;28;20523;-67
2023/05/14 05:25:07;;;;;;;13.77;8.53;;;12.90;99.90;;;;;;5078455;28;20432;-68
2023/05/14 05:27:35;;;;;;;11.87;8.60;;;12.90;99.90;;;;;;5073038;28;20490;-68
2023/05/14 05:30:05;;;;;;;12.17;8.20;;;12.80;99.90;;;;;;5073212;28;20459;-68
2023/05/14 05:32:32;;;;;;;10.17;7.73;;;12.90;99.90;;;;;;5073023;28;20437;-67
2023/05/14 05:35:03;;;;;;;9.90;7.03;;;12.90;99.90;;;;;;5073207;28;20447;-68
2023/05/14 05:37:39;;;;;;;14.70;9.10;;;12.80;99.90;;;;;;5074033;28;20482;-67
2023/05/14 05:40:12;;;;;;;11.37;9.23;;;12.90;99.90;;;;;;5088195;28;20475;-67
2023/05/14 05:42:42;;;;;;;10.13;7.53;;;12.90;99.90;;;;;;5081510;28;20522;-68
2023/05/14 05:45:16;;;;;;;10.97;8.87;;;12.90;99.90;;;;;;5072719;28;20987;-67
2023/05/14 05:47:44;;;;;;;11.20;8.40;;;12.90;99.90;;;;;;5072482;28;20429;-68
2023/05/14 05:50:15;;;;;;;11.17;8.40;;;12.90;99.90;;;;;;5068397;28;20471;-67
2023/05/14 05:52:45;;;;;;;10.67;7.80;;;12.90;99.90;;;;;;5072228;28;20444;-68
2023/05/14 05:55:17;;;;;;;12.73;7.67;;;12.90;99.90;;;;;;5072589;28;20447;-68
2023/05/14 05:57:44;;;;;;;12.37;8.07;;;12.90;99.90;;;;;;5072476;28;20442;-69
2023/05/14 06:00:16;;;;;;;11.03;8.40;;;12.90;99.90;;;;;;5072386;28;21016;-68
2023/05/14 06:02:46;;;;;;;10.27;8.40;;;12.90;99.90;;;;;;5072079;28;20435;-69
2023/05/14 06:05:14;;;;;;;14.20;9.80;;;12.90;99.90;;;;;;5068097;28;20436;-68
2023/05/14 06:07:41;;;;;;;13.63;10.40;;;12.90;99.90;;;;;;5072118;28;20523;-68
2023/05/14 06:10:09;;;;;;;13.80;9.67;;;12.90;99.90;;;;;;5072204;28;20440;-68
2023/05/14 06:12:43;;;;;;;13.83;11.23;;;12.90;99.90;;;;;;5072369;28;20443;-69
2023/05/14 06:15:13;;;;;;;14.23;10.70;;;12.90;99.90;;;;;;5071595;28;20530;-68
2023/05/14 06:17:47;;;;;;;14.40;12.10;;;12.90;99.90;;;;;;5072201;28;20450;-69
2023/05/14 06:20:14;;;;;;;19.27;12.97;;;12.90;99.90;;;;;;5087131;28;20484;-68
2023/05/14 06:22:43;;;;;;;17.83;12.67;;;12.90;99.90;;;;;;5072273;28;20474;-69
2023/05/14 06:25:16;;;;;;;17.63;13.43;;;12.90;99.90;;;;;;5071865;28;20468;-69
2023/05/14 06:27:44;;;;;;;19.70;12.90;;;12.90;99.90;;;;;;5072144;28;20436;-69
2023/05/14 06:30:12;;;;;;;21.83;14.60;;;12.90;99.90;;;;;;5071582;28;20443;-69
2023/05/14 06:32:40;;;;;;;22.63;16.10;;;12.90;99.90;;;;;;5072009;28;20515;-68
2023/05/14 06:35:14;;;;;;;22.00;15.70;;;12.90;99.90;;;;;;5089435;28;20445;-69
2023/05/14 06:37:44;;;;;;;23.67;16.07;;;12.90;99.90;;;;;;5069474;28;20476;-68
2023/05/14 06:40:14;;;;;;;19.63;14.53;;;12.90;99.90;;;;;;5071777;28;20566;-69
2023/05/14 06:42:47;;;;;;;24.03;16.10;;;12.90;99.90;;;;;;5068249;28;20432;-69
2023/05/14 06:45:14;;;;;;;19.87;14.60;;;12.80;99.90;;;;;;5071755;28;20447;-69
2023/05/14 06:47:41;;;;;;;20.47;15.17;;;12.80;99.90;;;;;;5075445;28;20925;-69
2023/05/14 06:50:09;;;;;;;22.90;17.27;;;12.80;99.90;;;;;;5089915;28;20446;-68
2023/05/14 06:52:39;;;;;;;17.27;13.73;;;12.80;99.90;;;;;;5071933;28;21735;-69
2023/05/14 06:55:07;;;;;;;23.00;15.40;;;12.80;99.90;;;;;;5071486;28;20439;-69
2023/05/14 06:57:37;;;;;;;25.50;16.83;;;12.70;99.90;;;;;;5071128;28;20460;-69
2023/05/14 07:00:08;;;;;;;21.77;15.80;;;12.80;99.90;;;;;;5071711;28;20840;-69
2023/05/14 07:02:36;;;;;;;19.97;13.97;;;12.80;99.90;;;;;;5071333;28;20915;-68
2023/05/14 07:05:10;;;;;;;23.90;15.70;;;12.80;99.90;;;;;;5081657;28;20462;-69
2023/05/14 07:07:39;;;;;;;22.30;15.37;;;12.80;99.90;;;;;;5070993;28;20453;-69
2023/05/14 07:10:08;;;;;;;18.90;14.40;;;12.90;99.90;;;;;;5071756;28;20942;-69
2023/05/14 07:12:35;;;;;;;21.77;15.40;;;12.90;99.90;;;;;;5066222;28;20436;-66
2023/05/14 07:15:04;;;;;;;20.83;14.70;;;12.90;99.90;;;;;;5071511;28;20543;-66
2023/05/14 07:17:32;;;;;;;20.63;14.93;;;13.00;99.90;;;;;;5075478;28;20432;-66
2023/05/14 07:19:59;;;;;;;22.20;14.70;;;13.10;99.90;;;;;;5073719;28;20505;-66
2023/05/14 07:22:30;;;;;;;18.70;13.50;;;13.20;99.90;;;;;;5075123;28;20615;-66
2023/05/14 07:24:59;;;;;;;21.07;15.47;;;13.20;99.90;;;;;;5075161;28;20490;-66
2023/05/14 07:27:29;;;;;;;17.50;13.67;;;13.30;99.90;;;;;;5075279;28;20446;-66
2023/05/14 07:29:56;;;;;;;18.20;13.17;;;13.40;99.90;;;;;;5076480;28;20440;-66
2023/05/14 07:32:24;;;;;;;20.30;13.43;;;13.50;99.90;;;;;;5076265;28;20436;-66
2023/05/14 07:34:51;;;;;;;19.83;12.60;;;13.60;99.90;;;;;;5076555;28;20439;-66
2023/05/14 07:37:18;;;;;;;18.83;12.67;;;13.70;99.90;;;;;;5076272;28;20501;-66
2023/05/14 07:39:45;;;;;;;20.60;13.13;;;13.80;99.90;;;;;;5075802;28;20866;-66
2023/05/14 07:42:14;;;;;;;16.93;12.43;;;13.90;99.90;;;;;;5076447;28;20535;-66
2023/05/14 07:44:41;;;;;;;15.40;12.13;;;13.90;99.90;;;;;;5076523;28;20440;-66
2023/05/14 07:47:12;;;;;;;15.93;11.23;;;13.90;99.90;;;;;;5075950;28;20910;-67
2023/05/14 07:49:39;;;;;;;14.23;10.10;;;13.80;99.90;;;;;;5076299;28;20448;-66
2023/05/14 07:52:06;;;;;;;14.03;10.80;;;13.80;99.90;;;;;;5075996;28;20493;-67
2023/05/14 07:54:33;;;;;;;15.50;11.87;;;13.80;99.90;;;;;;5075982;28;20531;-66
2023/05/14 07:57:02;;;;;;;14.80;11.60;;;13.80;99.90;;;;;;5075919;28;20462;-66
2023/05/14 07:59:36;;;;;;;15.53;11.63;;;13.80;99.90;;;;;;5075420;28;20475;-66
2023/05/14 08:02:04;;;;;;;15.60;11.17;;;13.90;99.90;;;;;;5075488;28;20471;-66
2023/05/14 08:04:31;;;;;;;14.67;10.80;;;13.90;99.90;;;;;;5075895;28;20436;-67
2023/05/14 08:07:03;;;;;;;11.87;9.83;;;13.90;99.90;;;;;;5075803;28;20467;-66
2023/05/14 08:09:30;;;;;;;11.60;8.77;;;13.90;99.90;;;;;;5075436;28;20435;-66
2023/05/14 08:11:57;;;;;;;13.13;9.77;;;14.00;99.90;;;;;;5075588;28;20934;-67
2023/05/14 08:14:25;;;;;;;9.77;7.77;;;14.00;99.90;;;;;;5075768;28;20906;-67
2023/05/14 08:16:53;;;;;;;13.30;9.50;;;14.10;99.90;;;;;;5075789;28;21002;-66
2023/05/14 08:19:20;;;;;;;14.43;9.87;;;14.10;99.90;;;;;;5075633;28;20509;-67
2023/05/14 08:21:48;;;;;;;11.13;9.27;;;14.20;99.90;;;;;;5058428;28;20561;-68
2023/05/14 08:24:15;;;;;;;12.50;10.03;;;14.20;99.90;;;;;;5046460;28;20454;-67
2023/05/14 08:26:42;;;;;;;11.50;8.90;;;14.30;99.90;;;;;;5079416;28;20443;-67
2023/05/14 08:29:09;;;;;;;13.70;9.33;;;14.30;99.90;;;;;;5074371;28;20501;-67
2023/05/14 08:31:36;;;;;;;9.97;7.67;;;14.50;99.90;;;;;;5071635;28;20926;-67
2023/05/14 08:34:05;;;;;;;11.60;9.13;;;14.50;99.90;;;;;;5073992;28;20440;-67
2023/05/14 08:36:33;;;;;;;12.63;11.13;;;14.60;99.90;;;;;;5074384;28;20459;-68
2023/05/14 08:39:00;;;;;;;13.80;9.17;;;14.80;99.90;;;;;;5073437;28;20444;-67
2023/05/14 08:41:27;;;;;;;14.53;10.33;;;14.80;99.90;;;;;;5074149;28;20993;-68
2023/05/14 08:44:04;;;;;;;16.30;11.40;;;14.90;99.90;;;;;;5074056;28;20432;-68
2023/05/14 08:46:32;;;;;;;15.13;10.47;;;14.90;99.90;;;;;;5073780;28;20972;-68
2023/05/14 08:49:04;;;;;;;15.63;10.63;;;15.00;99.90;;;;;;5073927;28;20444;-68
2023/05/14 08:51:33;;;;;;;14.60;10.13;;;15.20;99.90;;;;;;5074020;28;20443;-68
2023/05/14 08:54:02;;;;;;;13.40;9.83;;;15.40;99.60;;;;;;5073624;28;20505;-68
2023/05/14 08:56:35;;;;;;;15.83;11.20;;;15.70;99.20;;;;;;5073791;28;20489;-68
2023/05/14 08:59:02;;;;;;;12.73;9.07;;;16.10;98.40;;;;;;5073685;28;20439;-67
2023/05/14 09:01:29;;;;;;;13.80;10.40;;;16.50;97.30;;;;;;5073575;28;20484;-68
2023/05/14 09:03:57;;;;;;;15.20;10.77;;;17.00;97.10;;;;;;5073643;28;20432;-68
2023/05/14 09:06:25;;;;;;;15.93;11.67;;;17.50;96.50;;;;;;5073654;28;20428;-68
2023/05/14 09:09:03;;;;;;;13.60;10.67;;;18.10;96.00;;;;;;5074072;28;20475;-68
2023/05/14 09:11:32;;;;;;;12.50;10.70;;;18.30;93.70;;;;;;5073443;28;20948;-67
2023/05/14 09:14:00;;;;;;;13.83;10.30;;;18.40;92.80;;;;;;5073414;28;20443;-68
2023/05/14 09:16:27;;;;;;;14.30;11.53;;;18.40;92.10;;;;;;5073427;28;20437;-68
2023/05/14 09:18:56;;;;;;;12.23;9.73;;;18.40;91.50;;;;;;5073486;28;20823;-68
2023/05/14 09:21:24;;;;;;;12.47;9.97;;;18.40;91.60;;;;;;5073416;28;20877;-68
2023/05/14 09:23:55;;;;;;;13.40;9.80;;;18.40;90.70;;;;;;5073744;28;20486;-68
2023/05/14 09:26:26;;;;;;;12.10;9.47;;;18.30;90.90;;;;;;5073639;28;20439;-68
2023/05/14 09:29:00;;;;;;;11.20;8.87;;;18.20;90.70;;;;;;5073712;28;20501;-68
2023/05/14 09:31:27;;;;;;;10.40;8.20;;;18.20;90.60;;;;;;5073633;28;20431;-68
2023/05/14 09:33:55;;;;;;;10.47;7.87;;;18.20;90.30;;;;;;5073126;28;20809;-68
2023/05/14 09:36:25;;;;;;;8.77;7.00;;;18.30;90.40;;;;;;5073366;28;20481;-68
2023/05/14 09:38:53;;;;;;;11.33;7.43;;;18.40;89.00;;;;;;5072453;28;20444;-69
2023/05/14 09:41:21;;;;;;;8.90;6.60;;;18.40;89.80;;;;;;5073309;28;20479;-69
2023/05/14 09:43:50;;;;;;;10.83;7.70;;;18.40;89.30;;;;;;5073028;28;20444;-68
2023/05/14 09:46:22;;;;;;;11.07;8.27;;;18.40;86.90;;;;;;5072744;28;20591;-68
2023/05/14 09:48:49;;;;;;;9.83;7.93;;;18.20;86.90;;;;;;5072702;28;20444;-68
2023/05/14 09:51:19;;;;;;;10.83;8.67;;;18.00;87.20;;;;;;5072638;28;20774;-68
2023/05/14 09:53:47;;;;;;;13.60;8.93;;;17.90;87.00;;;;;;5072456;28;20440;-68
2023/05/14 09:56:16;;;;;;;10.70;7.97;;;17.80;87.90;;;;;;5071838;28;20436;-68
2023/05/14 09:58:44;;;;;;;10.87;8.90;;;17.70;88.60;;;;;;5071833;28;20444;-68
2023/05/14 10:01:15;;;;;;;13.10;9.27;;;17.50;89.00;;;;;;5072238;28;20490;-68
2023/05/14 10:03:43;;;;;;;13.83;9.57;;;17.40;89.30;;;;;;5072196;28;20813;-68
2023/05/14 10:06:13;;;;;;;12.20;10.13;;;17.30;88.80;;;;;;5071643;28;20510;-68
2023/05/14 10:08:44;;;;;;;10.47;8.37;;;17.20;88.50;;;;;;5083254;28;20466;-68
2023/05/14 10:11:16;;;;;;;13.13;10.20;;;17.10;89.40;;;;;;5091680;28;20439;-68
2023/05/14 10:13:54;;;;;;;13.30;9.83;;;17.00;89.90;;;;;;5091878;28;20445;-68
2023/05/14 10:16:33;;;;;;;11.80;8.83;;;16.90;90.10;;;;;;5092353;28;20439;-68
2023/05/14 10:19:06;;;;;;;12.83;9.63;;;16.80;90.80;;;;;;5091624;28;20473;-68
2023/05/14 10:21:36;;;;;;;14.53;10.03;;;16.70;91.00;;;;;;5091687;28;20471;-68
2023/05/14 10:24:05;;;;;;;18.07;11.33;;;16.60;91.40;;;;;;5091150;28;20435;-68
2023/05/14 10:26:34;;;;;;;13.70;9.70;;;16.60;91.70;;;;;;5092156;28;20497;-68
2023/05/14 10:29:06;;;;;;;14.20;9.20;;;16.60;91.70;;;;;;5077297;28;20447;-68
2023/05/14 10:31:50;;;;;;;13.53;9.50;;;16.60;91.60;;;;;;5091681;28;20488;-68
2023/05/14 10:34:36;;;;;;;13.50;9.60;;;16.50;91.30;;;;;;5090436;28;20443;-68
2023/05/14 10:37:04;;;;;;;14.77;10.00;;;16.50;91.30;;;;;;5081169;28;20440;-68
2023/05/14 10:39:42;;;;;;;14.73;8.57;;;16.40;91.30;;;;;;5078443;28;20432;-68
2023/05/14 10:42:13;;;;;;;14.87;10.00;;;16.40;91.40;;;;;;5091389;28;20561;-68
2023/05/14 10:44:47;;;;;;;15.40;10.37;;;16.40;91.00;;;;;;5090903;28;20443;-69
2023/05/14 10:47:17;;;;;;;12.97;10.53;;;16.30;91.30;;;;;;5090530;28;20522;-68
2023/05/14 10:49:49;;;;;;;13.47;10.40;;;16.20;91.50;;;;;;5090719;28;20445;-68
2023/05/14 10:52:20;;;;;;;14.30;9.80;;;16.10;92.00;;;;;;5091152;28;20446;-68
2023/05/14 10:54:51;;;;;;;14.13;10.07;;;15.90;91.70;;;;;;5091119;28;20517;-68
2023/05/14 10:57:20;;;;;;;14.53;10.10;;;15.90;91.50;;;;;;5091505;28;20443;-68
2023/05/14 10:59:48;;;;;;;13.30;10.67;;;15.70;91.60;;;;;;5091450;28;20840;-68
2023/05/14 11:02:26;;;;;;;14.77;11.03;;;15.70;92.00;;;;;;5091526;28;20489;-68
2023/05/14 11:04:58;;;;;;;13.80;9.80;;;15.60;92.40;;;;;;5091524;28;20449;-68
2023/05/14 11:07:31;;;;;;;17.00;10.27;;;15.60;92.40;;;;;;5091093;28;20443;-68
2023/05/14 11:10:04;;;;;;;13.40;9.63;;;15.60;92.80;;;;;;5091245;28;20430;-68
2023/05/14 11:12:33;;;;;;;14.47;11.17;;;15.50;93.10;;;;;;5091103;28;20450;-68
2023/05/14 11:15:03;;;;;;;15.10;10.57;;;15.50;93.20;;;;;;5090568;28;20811;-68
2023/05/14 11:17:35;;;;;;;14.97;10.77;;;15.50;93.50;;;;;;5091158;28;20467;-69
2023/05/14 11:20:07;;;;;;;14.27;10.63;;;15.60;93.20;;;;;;5091122;28;20467;-68
2023/05/14 11:22:35;;;;;;;14.63;10.80;;;15.60;93.00;;;;;;5090964;28;20514;-68
2023/05/14 11:25:07;;;;;;;17.37;10.10;;;15.70;93.20;;;;;;5090841;28;20435;-68
2023/05/14 11:27:39;;;;;;;17.60;12.83;;;15.70;93.20;;;;;;5091110;28;20480;-68
2023/05/14 11:30:14;;;;;;;15.90;11.27;;;15.60;92.80;;;;;;5089858;28;20474;-68
2023/05/14 11:32:46;;;;;;;14.10;10.20;;;15.60;93.00;;;;;;5091189;28;20514;-68
2023/05/14 11:35:18;;;;;;;16.27;12.10;;;15.60;93.20;;;;;;5089957;28;20447;-68
2023/05/14 11:37:52;;;;;;;12.73;10.37;;;15.60;93.40;;;;;;5090778;28;20531;-68
2023/05/14 11:40:22;;;;;;;15.63;10.50;;;15.50;93.50;;;;;;5091009;28;20443;-68
2023/05/14 11:42:53;;;;;;;15.87;10.80;;;15.50;93.60;;;;;;5090964;28;20486;-67
2023/05/14 11:45:28;;;;;;;19.37;12.00;;;15.50;93.80;;;;;;5090657;28;20489;-68
2023/05/14 11:47:57;;;;;;;14.97;10.83;;;15.60;94.10;;;;;;5090918;28;20438;-68
2023/05/14 11:50:27;;;;;;;13.80;9.93;;;15.70;94.10;;;;;;5090194;28;20439;-68
2023/05/14 11:52:59;;;;;;;13.90;10.20;;;15.80;93.90;;;;;;5090874;28;20840;-68
2023/05/14 11:55:34;;;;;;;17.60;11.67;;;15.90;93.60;;;;;;5091002;28;20430;-69
2023/05/14 11:58:02;;;;;;;19.83;10.50;;;15.90;93.50;;;;;;5090954;28;20449;-68
2023/05/14 12:00:35;;;;;;;16.13;11.17;;;16.00;93.60;;;;;;5090767;28;20564;-68
2023/05/14 12:03:04;;;;;;;16.60;11.53;;;16.10;93.60;;;;;;5094603;28;20481;-68
2023/05/14 12:05:31;;;;;;;15.60;10.77;;;16.30;93.50;;;;;;5094047;28;20496;-69
2023/05/14 12:07:58;;;;;;;15.27;11.13;;;16.40;92.60;;;;;;5095282;28;20467;-68
2023/05/14 12:10:25;;;;;;;15.60;10.50;;;16.40;91.90;;;;;;5094946;28;20855;-68
2023/05/14 12:12:52;;;;;;;15.80;11.57;;;16.40;91.90;;;;;;5095991;28;20462;-68
2023/05/14 12:15:22;;;;;;;13.63;10.30;;;16.50;91.80;;;;;;5095505;28;20434;-68
2023/05/14 12:17:52;;;;;;;13.70;9.67;;;16.60;91.90;;;;;;5095718;28;20497;-68
2023/05/14 12:20:20;;;;;;;14.50;10.00;;;16.70;91.40;;;;;;5095552;28;20449;-68
2023/05/14 12:22:47;;;;;;;15.53;10.40;;;17.00;91.00;;;;;;5095725;28;20483;-69
2023/05/14 12:25:20;;;;;;;12.73;9.40;;;17.20;90.90;;;;;;5095867;28;20929;-68
2023/05/14 12:27:51;;;;;;;12.87;9.10;;;17.60;90.60;;;;;;5095687;28;20449;-68
2023/05/14 12:30:18;;;;;;;11.37;8.63;;;17.90;89.40;;;;;;5095648;28;20435;-68
2023/05/14 12:32:45;;;;;;;15.07;10.00;;;18.20;86.20;;;;;;5095825;28;20473;-69
2023/05/14 12:35:12;;;;;;;10.97;8.00;;;18.30;86.30;;;;;;5095675;28;21111;-68
2023/05/14 12:37:41;;;;;;;12.50;9.03;;;18.30;84.60;;;;;;5095513;28;20471;-68
2023/05/14 12:40:13;;;;;;;10.90;8.70;;;18.20;82.90;;;;;;5095431;28;20500;-68
2023/05/14 12:42:40;;;;;;;12.70;9.00;;;18.00;82.10;;;;;;5095283;28;21000;-69
2023/05/14 12:45:10;;;;;;;12.90;8.80;;;17.90;83.50;;;;;;5095172;28;20533;-69
2023/05/14 12:47:42;;;;;;;11.37;9.80;;;17.70;84.10;;;;;;5095482;28;20443;-68
2023/05/14 12:50:09;;;;;;;12.50;9.70;;;17.50;83.70;;;;;;5095249;28;20431;-69